sensor_id;sensor_type;location;lat;lon;timestamp;temperature;humidity
67131;HTU21D;54051;53.464;49.532;2023-03-16T00:02:13;3.69;50.56
67131;HTU21D;54051;53.464;49.532;2023-03-16T00:04:39;3.70;50.50
67131;HTU21D;54051;53.464;49.532;2023-03-16T00:07:08;3.71;51.04
67131;HTU21D;54051;53.464;49.532;2023-03-16T00:09:35;3.71;49.17
67131;HTU21D;54051;53.464;49.532;2023-03-16T00:12:16;3.77;48.77
67131;HTU21D;54051;53.464;49.532;2023-03-16T00:14:45;3.76;51.56
67131;HTU21D;54051;53.464;49.532;2023-03-16T00:17:13;3.68;50.79
67131;HTU21D;54051;53.464;49.532;2023-03-16T00:19:46;3.71;49.67
67131;HTU21D;54051;53.464;49.532;2023-03-16T00:22:14;3.67;50.53
67131;HTU21D;54051;53.464;49.532;2023-03-16T00:24:41;3.69;50.50
67131;HTU21D;54051;53.464;49.532;2023-03-16T00:27:12;3.62;51.65
67131;HTU21D;54051;53.464;49.532;2023-03-16T00:29:41;3.54;52.01
67131;HTU21D;54051;53.464;49.532;2023-03-16T00:32:14;3.56;50.56
67131;HTU21D;54051;53.464;49.532;2023-03-16T00:34:42;3.60;50.79
67131;HTU21D;54051;53.464;49.532;2023-03-16T00:37:08;3.56;52.78
67131;HTU21D;54051;53.464;49.532;2023-03-16T00:39:34;3.53;51.58
67131;HTU21D;54051;53.464;49.532;2023-03-16T00:42:01;3.54;51.08
67131;HTU21D;54051;53.464;49.532;2023-03-16T00:44:28;3.52;51.43
67131;HTU21D;54051;53.464;49.532;2023-03-16T00:46:54;3.45;51.32
67131;HTU21D;54051;53.464;49.532;2023-03-16T00:49:20;3.41;52.66
67131;HTU21D;54051;53.464;49.532;2023-03-16T00:51:47;3.49;51.86
67131;HTU21D;54051;53.464;49.532;2023-03-16T00:54:13;3.43;51.90
67131;HTU21D;54051;53.464;49.532;2023-03-16T00:56:39;3.42;52.91
67131;HTU21D;54051;53.464;49.532;2023-03-16T00:59:07;3.42;53.80
67131;HTU21D;54051;53.464;49.532;2023-03-16T01:01:34;3.39;52.88
67131;HTU21D;54051;53.464;49.532;2023-03-16T01:04:00;3.42;53.72
67131;HTU21D;54051;53.464;49.532;2023-03-16T01:06:26;3.35;53.15
67131;HTU21D;54051;53.464;49.532;2023-03-16T01:08:52;3.34;53.76
67131;HTU21D;54051;53.464;49.532;2023-03-16T01:11:21;3.31;53.68
67131;HTU21D;54051;53.464;49.532;2023-03-16T01:13:49;3.28;53.88
67131;HTU21D;54051;53.464;49.532;2023-03-16T01:16:19;3.30;54.01
67131;HTU21D;54051;53.464;49.532;2023-03-16T01:18:48;3.31;54.64
67131;HTU21D;54051;53.464;49.532;2023-03-16T01:21:15;3.31;54.58
67131;HTU21D;54051;53.464;49.532;2023-03-16T01:23:41;3.31;54.42
67131;HTU21D;54051;53.464;49.532;2023-03-16T01:26:09;3.31;54.44
67131;HTU21D;54051;53.464;49.532;2023-03-16T01:28:36;3.26;55.31
67131;HTU21D;54051;53.464;49.532;2023-03-16T01:31:05;3.19;54.78
67131;HTU21D;54051;53.464;49.532;2023-03-16T01:33:32;3.31;54.16
67131;HTU21D;54051;53.464;49.532;2023-03-16T01:36:01;3.31;54.92
67131;HTU21D;54051;53.464;49.532;2023-03-16T01:38:28;3.26;56.74
67131;HTU21D;54051;53.464;49.532;2023-03-16T01:40:55;3.20;54.18
67131;HTU21D;54051;53.464;49.532;2023-03-16T01:43:24;3.28;55.05
67131;HTU21D;54051;53.464;49.532;2023-03-16T01:48:32;3.31;54.94
67131;HTU21D;54051;53.464;49.532;2023-03-16T01:51:05;3.36;54.20
67131;HTU21D;54051;53.464;49.532;2023-03-16T01:53:32;3.33;55.26
67131;HTU21D;54051;53.464;49.532;2023-03-16T01:56:00;3.32;54.75
67131;HTU21D;54051;53.464;49.532;2023-03-16T01:58:29;3.29;55.34
67131;HTU21D;54051;53.464;49.532;2023-03-16T02:00:57;3.29;54.67
67131;HTU21D;54051;53.464;49.532;2023-03-16T02:03:24;3.28;55.65
67131;HTU21D;54051;53.464;49.532;2023-03-16T02:06:01;3.26;55.41
67131;HTU21D;54051;53.464;49.532;2023-03-16T02:08:30;3.18;56.72
67131;HTU21D;54051;53.464;49.532;2023-03-16T02:10:57;3.16;56.02
67131;HTU21D;54051;53.464;49.532;2023-03-16T02:13:24;3.16;55.93
67131;HTU21D;54051;53.464;49.532;2023-03-16T02:15:51;3.15;56.61
67131;HTU21D;54051;53.464;49.532;2023-03-16T02:18:18;3.13;56.56
67131;HTU21D;54051;53.464;49.532;2023-03-16T02:23:19;3.18;55.98
67131;HTU21D;54051;53.464;49.532;2023-03-16T02:26:11;3.19;55.87
67131;HTU21D;54051;53.464;49.532;2023-03-16T02:31:32;3.21;55.88
67131;HTU21D;54051;53.464;49.532;2023-03-16T02:34:11;3.20;56.16
67131;HTU21D;54051;53.464;49.532;2023-03-16T02:36:39;3.19;56.34
67131;HTU21D;54051;53.464;49.532;2023-03-16T02:39:06;3.15;56.46
67131;HTU21D;54051;53.464;49.532;2023-03-16T02:41:33;3.14;56.60
67131;HTU21D;54051;53.464;49.532;2023-03-16T02:44:05;3.08;56.67
67131;HTU21D;54051;53.464;49.532;2023-03-16T02:46:32;3.04;56.78
67131;HTU21D;54051;53.464;49.532;2023-03-16T02:49:06;3.02;56.93
67131;HTU21D;54051;53.464;49.532;2023-03-16T02:51:34;3.00;56.90
67131;HTU21D;54051;53.464;49.532;2023-03-16T02:54:00;3.02;56.83
67131;HTU21D;54051;53.464;49.532;2023-03-16T02:56:27;3.02;57.14
67131;HTU21D;54051;53.464;49.532;2023-03-16T02:58:53;2.99;57.31
67131;HTU21D;54051;53.464;49.532;2023-03-16T03:01:19;2.95;57.51
67131;HTU21D;54051;53.464;49.532;2023-03-16T03:03:46;2.96;57.44
67131;HTU21D;54051;53.464;49.532;2023-03-16T03:06:12;2.95;57.84
67131;HTU21D;54051;53.464;49.532;2023-03-16T03:08:40;2.90;57.81
67131;HTU21D;54051;53.464;49.532;2023-03-16T03:11:08;2.86;58.33
67131;HTU21D;54051;53.464;49.532;2023-03-16T03:13:34;2.79;58.83
67131;HTU21D;54051;53.464;49.532;2023-03-16T03:16:03;2.86;58.41
67131;HTU21D;54051;53.464;49.532;2023-03-16T03:18:29;2.90;57.70
67131;HTU21D;54051;53.464;49.532;2023-03-16T03:20:56;2.96;58.14
67131;HTU21D;54051;53.464;49.532;2023-03-16T03:23:22;2.91;57.81
67131;HTU21D;54051;53.464;49.532;2023-03-16T03:25:48;2.97;58.03
67131;HTU21D;54051;53.464;49.532;2023-03-16T03:28:15;2.98;57.88
67131;HTU21D;54051;53.464;49.532;2023-03-16T03:30:41;3.00;58.04
67131;HTU21D;54051;53.464;49.532;2023-03-16T03:33:07;2.95;58.72
67131;HTU21D;54051;53.464;49.532;2023-03-16T03:35:34;2.93;58.51
67131;HTU21D;54051;53.464;49.532;2023-03-16T03:38:00;2.93;58.77
67131;HTU21D;54051;53.464;49.532;2023-03-16T03:40:26;2.95;58.87
67131;HTU21D;54051;53.464;49.532;2023-03-16T03:42:52;2.93;59.03
67131;HTU21D;54051;53.464;49.532;2023-03-16T03:45:19;2.93;58.64
67131;HTU21D;54051;53.464;49.532;2023-03-16T03:47:45;2.90;59.22
67131;HTU21D;54051;53.464;49.532;2023-03-16T03:50:12;2.84;59.54
67131;HTU21D;54051;53.464;49.532;2023-03-16T03:52:38;2.85;59.53
67131;HTU21D;54051;53.464;49.532;2023-03-16T03:58:00;2.81;60.06
67131;HTU21D;54051;53.464;49.532;2023-03-16T04:00:26;2.86;59.80
67131;HTU21D;54051;53.464;49.532;2023-03-16T04:02:52;2.87;59.86
67131;HTU21D;54051;53.464;49.532;2023-03-16T04:05:19;2.90;59.88
67131;HTU21D;54051;53.464;49.532;2023-03-16T04:07:45;2.94;58.98
67131;HTU21D;54051;53.464;49.532;2023-03-16T04:10:11;2.96;59.48
67131;HTU21D;54051;53.464;49.532;2023-03-16T04:12:38;3.08;58.99
67131;HTU21D;54051;53.464;49.532;2023-03-16T04:15:04;3.13;58.60
67131;HTU21D;54051;53.464;49.532;2023-03-16T04:17:30;3.20;58.25
67131;HTU21D;54051;53.464;49.532;2023-03-16T04:19:59;3.32;57.79
67131;HTU21D;54051;53.464;49.532;2023-03-16T04:22:27;3.53;57.39
67131;HTU21D;54051;53.464;49.532;2023-03-16T04:24:55;3.77;56.76
67131;HTU21D;54051;53.464;49.532;2023-03-16T04:27:21;4.07;55.80
67131;HTU21D;54051;53.464;49.532;2023-03-16T04:29:47;4.35;55.16
67131;HTU21D;54051;53.464;49.532;2023-03-16T04:32:13;4.80;53.62
67131;HTU21D;54051;53.464;49.532;2023-03-16T04:34:40;6.61;49.42
67131;HTU21D;54051;53.464;49.532;2023-03-16T04:37:08;9.41;40.07
67131;HTU21D;54051;53.464;49.532;2023-03-16T04:39:34;7.61;44.70
67131;HTU21D;54051;53.464;49.532;2023-03-16T04:42:01;6.01;49.12
67131;HTU21D;54051;53.464;49.532;2023-03-16T04:44:27;5.16;52.22
67131;HTU21D;54051;53.464;49.532;2023-03-16T04:46:53;4.96;52.87
67131;HTU21D;54051;53.464;49.532;2023-03-16T04:49:19;4.89;52.97
67131;HTU21D;54051;53.464;49.532;2023-03-16T04:51:46;5.02;52.69
67131;HTU21D;54051;53.464;49.532;2023-03-16T04:54:12;5.17;52.49
67131;HTU21D;54051;53.464;49.532;2023-03-16T04:56:38;5.15;52.58
67131;HTU21D;54051;53.464;49.532;2023-03-16T04:59:06;5.23;52.45
67131;HTU21D;54051;53.464;49.532;2023-03-16T05:01:32;5.86;50.67
67131;HTU21D;54051;53.464;49.532;2023-03-16T05:03:58;8.52;43.94
67131;HTU21D;54051;53.464;49.532;2023-03-16T05:06:25;12.71;33.95
67131;HTU21D;54051;53.464;49.532;2023-03-16T05:08:51;15.30;28.56
67131;HTU21D;54051;53.464;49.532;2023-03-16T05:11:17;16.01;26.17
67131;HTU21D;54051;53.464;49.532;2023-03-16T05:13:43;16.27;25.58
67131;HTU21D;54051;53.464;49.532;2023-03-16T05:16:10;16.01;26.29
67131;HTU21D;54051;53.464;49.532;2023-03-16T05:18:36;16.37;25.27
67131;HTU21D;54051;53.464;49.532;2023-03-16T05:21:02;15.78;26.49
67131;HTU21D;54051;53.464;49.532;2023-03-16T05:23:29;15.16;27.66
67131;HTU21D;54051;53.464;49.532;2023-03-16T05:25:55;15.18;27.29
67131;HTU21D;54051;53.464;49.532;2023-03-16T05:28:24;15.16;27.60
67131;HTU21D;54051;53.464;49.532;2023-03-16T05:30:50;15.21;27.67
67131;HTU21D;54051;53.464;49.532;2023-03-16T05:33:17;15.47;26.74
67131;HTU21D;54051;53.464;49.532;2023-03-16T05:35:45;13.63;30.37
67131;HTU21D;54051;53.464;49.532;2023-03-16T05:38:12;14.58;28.22
67131;HTU21D;54051;53.464;49.532;2023-03-16T05:40:38;15.63;27.10
67131;HTU21D;54051;53.464;49.532;2023-03-16T05:43:04;17.39;23.77
67131;HTU21D;54051;53.464;49.532;2023-03-16T05:45:31;18.34;21.89
67131;HTU21D;54051;53.464;49.532;2023-03-16T05:47:59;19.22;20.75
67131;HTU21D;54051;53.464;49.532;2023-03-16T05:50:25;19.96;19.85
67131;HTU21D;54051;53.464;49.532;2023-03-16T05:52:51;20.13;19.10
67131;HTU21D;54051;53.464;49.532;2023-03-16T05:55:17;20.85;18.08
67131;HTU21D;54051;53.464;49.532;2023-03-16T05:57:44;20.31;19.02
67131;HTU21D;54051;53.464;49.532;2023-03-16T06:00:12;20.27;19.30
67131;HTU21D;54051;53.464;49.532;2023-03-16T06:02:45;20.34;18.93
67131;HTU21D;54051;53.464;49.532;2023-03-16T06:05:15;20.92;18.02
67131;HTU21D;54051;53.464;49.532;2023-03-16T06:07:42;20.15;19.25
67131;HTU21D;54051;53.464;49.532;2023-03-16T06:10:09;20.72;18.61
67131;HTU21D;54051;53.464;49.532;2023-03-16T06:12:36;21.10;17.95
67131;HTU21D;54051;53.464;49.532;2023-03-16T06:15:03;21.15;17.86
67131;HTU21D;54051;53.464;49.532;2023-03-16T06:17:33;20.26;18.67
67131;HTU21D;54051;53.464;49.532;2023-03-16T06:20:00;16.00;25.13
67131;HTU21D;54051;53.464;49.532;2023-03-16T06:22:26;14.25;28.47
67131;HTU21D;54051;53.464;49.532;2023-03-16T06:24:54;11.76;33.76
67131;HTU21D;54051;53.464;49.532;2023-03-16T06:27:21;10.84;36.14
67131;HTU21D;54051;53.464;49.532;2023-03-16T06:29:50;10.70;37.35
67131;HTU21D;54051;53.464;49.532;2023-03-16T06:32:16;11.48;35.68
67131;HTU21D;54051;53.464;49.532;2023-03-16T06:34:42;15.33;27.41
67131;HTU21D;54051;53.464;49.532;2023-03-16T06:37:08;18.43;22.33
67131;HTU21D;54051;53.464;49.532;2023-03-16T06:39:34;18.07;21.85
67131;HTU21D;54051;53.464;49.532;2023-03-16T06:42:01;14.44;28.93
67131;HTU21D;54051;53.464;49.532;2023-03-16T06:44:29;13.43;30.75
67131;HTU21D;54051;53.464;49.532;2023-03-16T06:46:56;14.57;27.83
67131;HTU21D;54051;53.464;49.532;2023-03-16T06:49:23;14.19;29.10
67131;HTU21D;54051;53.464;49.532;2023-03-16T06:51:49;14.38;28.67
67131;HTU21D;54051;53.464;49.532;2023-03-16T06:54:15;13.18;30.18
67131;HTU21D;54051;53.464;49.532;2023-03-16T06:56:41;11.29;34.44
67131;HTU21D;54051;53.464;49.532;2023-03-16T06:59:08;10.26;37.29
67131;HTU21D;54051;53.464;49.532;2023-03-16T07:01:34;10.77;36.10
67131;HTU21D;54051;53.464;49.532;2023-03-16T07:04:00;12.95;30.93
67131;HTU21D;54051;53.464;49.532;2023-03-16T07:06:27;13.45;30.25
67131;HTU21D;54051;53.464;49.532;2023-03-16T07:08:53;14.42;28.86
67131;HTU21D;54051;53.464;49.532;2023-03-16T07:11:19;17.18;24.72
67131;HTU21D;54051;53.464;49.532;2023-03-16T07:13:45;21.13;18.19
67131;HTU21D;54051;53.464;49.532;2023-03-16T07:16:11;18.84;21.04
67131;HTU21D;54051;53.464;49.532;2023-03-16T07:18:38;16.15;25.08
67131;HTU21D;54051;53.464;49.532;2023-03-16T07:21:05;14.28;28.84
67131;HTU21D;54051;53.464;49.532;2023-03-16T07:23:31;14.77;28.24
67131;HTU21D;54051;53.464;49.532;2023-03-16T07:25:57;14.66;27.20
67131;HTU21D;54051;53.464;49.532;2023-03-16T07:28:23;13.33;30.51
67131;HTU21D;54051;53.464;49.532;2023-03-16T07:30:49;15.29;26.07
67131;HTU21D;54051;53.464;49.532;2023-03-16T07:33:16;17.09;23.78
67131;HTU21D;54051;53.464;49.532;2023-03-16T07:35:43;20.19;18.54
67131;HTU21D;54051;53.464;49.532;2023-03-16T07:38:09;20.70;18.09
67131;HTU21D;54051;53.464;49.532;2023-03-16T07:40:38;21.06;17.32
67131;HTU21D;54051;53.464;49.532;2023-03-16T07:43:05;21.74;16.48
67131;HTU21D;54051;53.464;49.532;2023-03-16T07:45:31;21.52;16.29
67131;HTU21D;54051;53.464;49.532;2023-03-16T07:47:57;21.77;16.00
67131;HTU21D;54051;53.464;49.532;2023-03-16T07:50:24;20.53;17.75
67131;HTU21D;54051;53.464;49.532;2023-03-16T07:52:50;20.54;17.93
67131;HTU21D;54051;53.464;49.532;2023-03-16T07:55:16;20.59;17.93
67131;HTU21D;54051;53.464;49.532;2023-03-16T07:57:43;20.31;18.12
67131;HTU21D;54051;53.464;49.532;2023-03-16T08:00:13;19.97;18.51
67131;HTU21D;54051;53.464;49.532;2023-03-16T08:02:40;19.85;17.87
67131;HTU21D;54051;53.464;49.532;2023-03-16T08:05:07;19.47;19.06
67131;HTU21D;54051;53.464;49.532;2023-03-16T08:07:37;19.70;19.09
67131;HTU21D;54051;53.464;49.532;2023-03-16T08:10:04;21.01;17.49
67131;HTU21D;54051;53.464;49.532;2023-03-16T08:12:31;21.93;15.72
67131;HTU21D;54051;53.464;49.532;2023-03-16T08:14:58;22.05;15.83
67131;HTU21D;54051;53.464;49.532;2023-03-16T08:17:24;21.94;15.77
67131;HTU21D;54051;53.464;49.532;2023-03-16T08:19:51;21.29;15.90
67131;HTU21D;54051;53.464;49.532;2023-03-16T08:22:17;20.09;17.47
67131;HTU21D;54051;53.464;49.532;2023-03-16T08:24:43;16.69;21.31
67131;HTU21D;54051;53.464;49.532;2023-03-16T08:27:10;15.71;21.73
67131;HTU21D;54051;53.464;49.532;2023-03-16T08:29:36;17.70;17.99
67131;HTU21D;54051;53.464;49.532;2023-03-16T08:32:03;17.54;18.44
67131;HTU21D;54051;53.464;49.532;2023-03-16T08:34:29;17.23;18.31
67131;HTU21D;54051;53.464;49.532;2023-03-16T08:36:56;16.66;19.95
67131;HTU21D;54051;53.464;49.532;2023-03-16T08:39:22;17.95;17.44
67131;HTU21D;54051;53.464;49.532;2023-03-16T08:41:49;16.88;19.03
67131;HTU21D;54051;53.464;49.532;2023-03-16T08:44:15;15.80;20.64
67131;HTU21D;54051;53.464;49.532;2023-03-16T08:46:42;15.77;20.88
67131;HTU21D;54051;53.464;49.532;2023-03-16T08:49:09;16.75;20.18
67131;HTU21D;54051;53.464;49.532;2023-03-16T08:51:36;17.81;17.77
67131;HTU21D;54051;53.464;49.532;2023-03-16T08:54:02;16.87;19.32
67131;HTU21D;54051;53.464;49.532;2023-03-16T08:56:28;15.57;20.87
67131;HTU21D;54051;53.464;49.532;2023-03-16T08:58:55;16.63;19.61
67131;HTU21D;54051;53.464;49.532;2023-03-16T09:01:22;16.22;20.14
67131;HTU21D;54051;53.464;49.532;2023-03-16T09:03:50;14.11;23.85
67131;HTU21D;54051;53.464;49.532;2023-03-16T09:06:17;13.39;25.70
67131;HTU21D;54051;53.464;49.532;2023-03-16T09:08:44;14.09;24.38
67131;HTU21D;54051;53.464;49.532;2023-03-16T09:11:13;14.42;23.97
67131;HTU21D;54051;53.464;49.532;2023-03-16T09:13:41;14.11;23.93
67131;HTU21D;54051;53.464;49.532;2023-03-16T09:16:08;13.40;25.99
67131;HTU21D;54051;53.464;49.532;2023-03-16T09:18:35;13.01;26.87
67131;HTU21D;54051;53.464;49.532;2023-03-16T09:21:03;12.79;26.42
67131;HTU21D;54051;53.464;49.532;2023-03-16T09:23:31;12.22;26.94
67131;HTU21D;54051;53.464;49.532;2023-03-16T09:26:04;11.72;28.01
67131;HTU21D;54051;53.464;49.532;2023-03-16T09:28:30;11.67;28.89
67131;HTU21D;54051;53.464;49.532;2023-03-16T09:30:57;11.74;28.63
67131;HTU21D;54051;53.464;49.532;2023-03-16T09:33:24;12.14;27.98
67131;HTU21D;54051;53.464;49.532;2023-03-16T09:35:51;12.15;27.33
67131;HTU21D;54051;53.464;49.532;2023-03-16T09:38:18;12.29;27.42
67131;HTU21D;54051;53.464;49.532;2023-03-16T09:40:47;12.18;27.74
67131;HTU21D;54051;53.464;49.532;2023-03-16T09:46:15;12.20;26.25
67131;HTU21D;54051;53.464;49.532;2023-03-16T09:48:43;12.22;26.07
67131;HTU21D;54051;53.464;49.532;2023-03-16T09:51:28;11.82;27.03
67131;HTU21D;54051;53.464;49.532;2023-03-16T09:54:00;11.63;26.68
67131;HTU21D;54051;53.464;49.532;2023-03-16T09:56:39;11.51;27.84
67131;HTU21D;54051;53.464;49.532;2023-03-16T09:59:11;11.26;27.84
67131;HTU21D;54051;53.464;49.532;2023-03-16T10:07:31;11.66;27.76
67131;HTU21D;54051;53.464;49.532;2023-03-16T10:10:14;11.82;27.00
67131;HTU21D;54051;53.464;49.532;2023-03-16T10:12:46;11.91;26.78
67131;HTU21D;54051;53.464;49.532;2023-03-16T10:15:26;11.79;27.15
67131;HTU21D;54051;53.464;49.532;2023-03-16T10:20:27;11.93;27.09
67131;HTU21D;54051;53.464;49.532;2023-03-16T10:22:58;11.74;28.03
67131;HTU21D;54051;53.464;49.532;2023-03-16T10:28:17;11.40;28.72
67131;HTU21D;54051;53.464;49.532;2023-03-16T10:30:43;11.08;29.69
67131;HTU21D;54051;53.464;49.532;2023-03-16T10:33:26;10.93;29.38
67131;HTU21D;54051;53.464;49.532;2023-03-16T10:38:44;11.12;29.87
67131;HTU21D;54051;53.464;49.532;2023-03-16T10:43:41;11.37;30.25
67131;HTU21D;54051;53.464;49.532;2023-03-16T10:46:09;11.13;30.93
67131;HTU21D;54051;53.464;49.532;2023-03-16T10:48:37;11.03;31.67
67131;HTU21D;54051;53.464;49.532;2023-03-16T10:51:10;10.98;31.64
67131;HTU21D;54051;53.464;49.532;2023-03-16T10:53:40;10.96;30.57
67131;HTU21D;54051;53.464;49.532;2023-03-16T10:56:24;11.07;31.53
67131;HTU21D;54051;53.464;49.532;2023-03-16T10:58:53;11.18;31.57
67131;HTU21D;54051;53.464;49.532;2023-03-16T11:01:30;11.16;31.41
67131;HTU21D;54051;53.464;49.532;2023-03-16T11:03:57;11.09;31.65
67131;HTU21D;54051;53.464;49.532;2023-03-16T11:06:27;11.12;30.14
67131;HTU21D;54051;53.464;49.532;2023-03-16T11:09:22;11.18;30.62
67131;HTU21D;54051;53.464;49.532;2023-03-16T11:11:50;11.19;30.58
67131;HTU21D;54051;53.464;49.532;2023-03-16T11:14:21;11.14;30.46
67131;HTU21D;54051;53.464;49.532;2023-03-16T11:16:52;11.30;31.09
67131;HTU21D;54051;53.464;49.532;2023-03-16T11:19:40;11.63;30.58
67131;HTU21D;54051;53.464;49.532;2023-03-16T11:22:23;11.69;30.49
67131;HTU21D;54051;53.464;49.532;2023-03-16T11:27:54;11.34;31.46
67131;HTU21D;54051;53.464;49.532;2023-03-16T11:32:56;11.43;30.86
67131;HTU21D;54051;53.464;49.532;2023-03-16T11:38:15;11.38;31.33
67131;HTU21D;54051;53.464;49.532;2023-03-16T11:43:42;11.40;31.54
67131;HTU21D;54051;53.464;49.532;2023-03-16T11:49:29;11.60;31.07
67131;HTU21D;54051;53.464;49.532;2023-03-16T12:00:37;11.87;30.30
67131;HTU21D;54051;53.464;49.532;2023-03-16T12:03:25;11.91;31.01
67131;HTU21D;54051;53.464;49.532;2023-03-16T12:11:13;11.76;30.90
67131;HTU21D;54051;53.464;49.532;2023-03-16T12:16:24;11.46;31.40
67131;HTU21D;54051;53.464;49.532;2023-03-16T12:19:00;11.32;30.61
67131;HTU21D;54051;53.464;49.532;2023-03-16T12:21:32;11.48;31.54
67131;HTU21D;54051;53.464;49.532;2023-03-16T12:24:02;11.82;32.08
67131;HTU21D;54051;53.464;49.532;2023-03-16T12:26:34;11.91;31.37
67131;HTU21D;54051;53.464;49.532;2023-03-16T12:29:18;11.69;30.64
67131;HTU21D;54051;53.464;49.532;2023-03-16T12:31:52;11.76;30.73
67131;HTU21D;54051;53.464;49.532;2023-03-16T12:48:02;10.73;34.50
67131;HTU21D;54051;53.464;49.532;2023-03-16T12:50:30;10.79;34.12
67131;HTU21D;54051;53.464;49.532;2023-03-16T12:52:58;10.68;34.09
67131;HTU21D;54051;53.464;49.532;2023-03-16T12:58:07;10.51;34.96
67131;HTU21D;54051;53.464;49.532;2023-03-16T13:00:41;10.30;35.46
67131;HTU21D;54051;53.464;49.532;2023-03-16T13:03:14;10.25;36.86
67131;HTU21D;54051;53.464;49.532;2023-03-16T13:05:49;10.13;36.41
67131;HTU21D;54051;53.464;49.532;2023-03-16T13:08:17;10.12;36.76
67131;HTU21D;54051;53.464;49.532;2023-03-16T13:11:04;9.98;37.20
67131;HTU21D;54051;53.464;49.532;2023-03-16T13:13:31;9.79;38.20
67131;HTU21D;54051;53.464;49.532;2023-03-16T13:16:09;9.76;38.43
67131;HTU21D;54051;53.464;49.532;2023-03-16T13:18:48;9.77;38.43
67131;HTU21D;54051;53.464;49.532;2023-03-16T13:21:16;9.89;37.73
67131;HTU21D;54051;53.464;49.532;2023-03-16T13:23:58;9.93;38.46
67131;HTU21D;54051;53.464;49.532;2023-03-16T13:26:38;9.82;39.18
67131;HTU21D;54051;53.464;49.532;2023-03-16T13:29:29;9.66;39.23
67131;HTU21D;54051;53.464;49.532;2023-03-16T13:32:07;9.55;40.13
67131;HTU21D;54051;53.464;49.532;2023-03-16T13:34:46;9.46;40.84
67131;HTU21D;54051;53.464;49.532;2023-03-16T13:37:17;9.46;41.24
67131;HTU21D;54051;53.464;49.532;2023-03-16T13:39:52;9.36;41.90
67131;HTU21D;54051;53.464;49.532;2023-03-16T13:42:22;9.35;41.96
67131;HTU21D;54051;53.464;49.532;2023-03-16T13:44:52;9.29;42.13
67131;HTU21D;54051;53.464;49.532;2023-03-16T13:47:19;9.24;42.10
67131;HTU21D;54051;53.464;49.532;2023-03-16T13:49:53;9.21;42.58
67131;HTU21D;54051;53.464;49.532;2023-03-16T13:54:52;9.10;43.74
67131;HTU21D;54051;53.464;49.532;2023-03-16T13:57:31;9.08;43.68
67131;HTU21D;54051;53.464;49.532;2023-03-16T14:00:12;9.03;44.04
67131;HTU21D;54051;53.464;49.532;2023-03-16T14:02:45;9.03;44.25
67131;HTU21D;54051;53.464;49.532;2023-03-16T14:05:17;8.95;45.12
67131;HTU21D;54051;53.464;49.532;2023-03-16T14:07:47;8.87;45.88
67131;HTU21D;54051;53.464;49.532;2023-03-16T14:10:14;8.75;46.19
67131;HTU21D;54051;53.464;49.532;2023-03-16T14:12:56;8.78;46.06
67131;HTU21D;54051;53.464;49.532;2023-03-16T14:15:27;8.72;47.06
67131;HTU21D;54051;53.464;49.532;2023-03-16T14:18:14;8.68;47.48
67131;HTU21D;54051;53.464;49.532;2023-03-16T14:20:42;8.57;48.58
67131;HTU21D;54051;53.464;49.532;2023-03-16T14:23:30;8.51;48.68
67131;HTU21D;54051;53.464;49.532;2023-03-16T14:25:58;8.52;48.52
67131;HTU21D;54051;53.464;49.532;2023-03-16T14:28:30;8.45;49.64
67131;HTU21D;54051;53.464;49.532;2023-03-16T14:31:09;8.31;50.02
67131;HTU21D;54051;53.464;49.532;2023-03-16T14:33:37;8.27;50.20
67131;HTU21D;54051;53.464;49.532;2023-03-16T14:36:11;8.21;50.82
67131;HTU21D;54051;53.464;49.532;2023-03-16T14:38:38;8.20;51.49
67131;HTU21D;54051;53.464;49.532;2023-03-16T14:41:24;8.14;51.63
67131;HTU21D;54051;53.464;49.532;2023-03-16T14:43:55;8.13;51.69
67131;HTU21D;54051;53.464;49.532;2023-03-16T14:46:41;8.09;52.35
67131;HTU21D;54051;53.464;49.532;2023-03-16T14:49:28;8.03;52.27
67131;HTU21D;54051;53.464;49.532;2023-03-16T14:51:59;8.01;52.55
67131;HTU21D;54051;53.464;49.532;2023-03-16T14:54:27;7.98;53.22
67131;HTU21D;54051;53.464;49.532;2023-03-16T14:57:00;7.97;53.75
67131;HTU21D;54051;53.464;49.532;2023-03-16T14:59:27;7.93;53.83
67131;HTU21D;54051;53.464;49.532;2023-03-16T15:01:57;7.89;54.15
67131;HTU21D;54051;53.464;49.532;2023-03-16T15:04:33;7.84;54.71
67131;HTU21D;54051;53.464;49.532;2023-03-16T15:07:00;7.79;55.10
67131;HTU21D;54051;53.464;49.532;2023-03-16T15:09:36;7.75;55.23
67131;HTU21D;54051;53.464;49.532;2023-03-16T15:12:10;7.74;55.57
67131;HTU21D;54051;53.464;49.532;2023-03-16T15:14:38;7.74;55.74
67131;HTU21D;54051;53.464;49.532;2023-03-16T15:17:22;7.69;56.07
67131;HTU21D;54051;53.464;49.532;2023-03-16T15:19:48;7.65;56.20
67131;HTU21D;54051;53.464;49.532;2023-03-16T15:22:19;7.62;56.54
67131;HTU21D;54051;53.464;49.532;2023-03-16T15:24:47;7.61;56.58
67131;HTU21D;54051;53.464;49.532;2023-03-16T15:27:19;7.60;56.89
67131;HTU21D;54051;53.464;49.532;2023-03-16T15:29:47;7.56;57.13
67131;HTU21D;54051;53.464;49.532;2023-03-16T15:32:14;7.48;57.49
67131;HTU21D;54051;53.464;49.532;2023-03-16T15:34:42;7.43;57.86
67131;HTU21D;54051;53.464;49.532;2023-03-16T15:37:15;7.44;57.90
67131;HTU21D;54051;53.464;49.532;2023-03-16T15:39:43;7.45;58.02
67131;HTU21D;54051;53.464;49.532;2023-03-16T15:42:17;7.43;58.16
67131;HTU21D;54051;53.464;49.532;2023-03-16T15:44:45;7.43;58.26
67131;HTU21D;54051;53.464;49.532;2023-03-16T15:47:12;7.41;58.22
67131;HTU21D;54051;53.464;49.532;2023-03-16T15:49:39;7.38;58.38
67131;HTU21D;54051;53.464;49.532;2023-03-16T15:52:06;7.38;58.40
67131;HTU21D;54051;53.464;49.532;2023-03-16T15:54:39;7.41;58.32
67131;HTU21D;54051;53.464;49.532;2023-03-16T15:57:05;7.45;58.22
67131;HTU21D;54051;53.464;49.532;2023-03-16T15:59:33;7.49;58.19
67131;HTU21D;54051;53.464;49.532;2023-03-16T16:02:02;7.47;58.31
67131;HTU21D;54051;53.464;49.532;2023-03-16T16:04:28;7.49;58.46
67131;HTU21D;54051;53.464;49.532;2023-03-16T16:06:54;7.56;58.42
67131;HTU21D;54051;53.464;49.532;2023-03-16T16:09:22;7.52;58.48
67131;HTU21D;54051;53.464;49.532;2023-03-16T16:11:48;7.53;58.54
67131;HTU21D;54051;53.464;49.532;2023-03-16T16:14:17;7.55;58.50
67131;HTU21D;54051;53.464;49.532;2023-03-16T16:16:44;7.55;58.57
67131;HTU21D;54051;53.464;49.532;2023-03-16T16:19:14;7.54;58.67
67131;HTU21D;54051;53.464;49.532;2023-03-16T16:21:42;7.58;58.63
67131;HTU21D;54051;53.464;49.532;2023-03-16T16:24:08;7.58;58.79
67131;HTU21D;54051;53.464;49.532;2023-03-16T16:26:36;7.65;58.70
67131;HTU21D;54051;53.464;49.532;2023-03-16T16:31:39;7.63;58.87
67131;HTU21D;54051;53.464;49.532;2023-03-16T16:34:16;7.65;58.77
67131;HTU21D;54051;53.464;49.532;2023-03-16T16:36:43;7.68;58.95
67131;HTU21D;54051;53.464;49.532;2023-03-16T16:39:10;7.70;58.96
67131;HTU21D;54051;53.464;49.532;2023-03-16T16:41:37;7.65;59.14
67131;HTU21D;54051;53.464;49.532;2023-03-16T16:44:04;7.61;59.31
67131;HTU21D;54051;53.464;49.532;2023-03-16T16:46:42;7.62;59.32